createdAt,value
2022-08-09T00:00:46.108Z,968.48
2022-08-09T00:01:54.955Z,968.51
2022-08-09T00:02:49.331Z,968.51
2022-08-09T00:04:05.874Z,968.49
2022-08-09T00:04:43.254Z,968.48
2022-08-09T00:06:17.287Z,968.49
2022-08-09T00:06:44.346Z,968.52
2022-08-09T00:07:44.915Z,968.52
2022-08-09T00:08:43.085Z,968.51
2022-08-09T00:09:43.046Z,968.53
2022-08-09T00:10:43.005Z,968.58
2022-08-09T00:12:04.281Z,968.54
2022-08-09T00:12:43.003Z,968.56
2022-08-09T00:13:42.883Z,968.55
2022-08-09T00:14:42.841Z,968.59
2022-08-09T00:15:57.912Z,968.61
2022-08-09T00:16:42.755Z,968.58
2022-08-09T00:18:05.314Z,968.58
2022-08-09T00:18:42.687Z,968.55
2022-08-09T00:19:42.636Z,968.54
2022-08-09T00:20:50.044Z,968.61
2022-08-09T00:21:56.157Z,968.57
2022-08-09T00:22:42.508Z,968.57
2022-08-09T00:23:54.835Z,968.58
2022-08-09T00:24:42.428Z,968.56
2022-08-09T00:25:42.385Z,968.52
2022-08-09T00:26:42.347Z,968.51
2022-08-09T00:27:43.085Z,968.50
2022-08-09T00:28:42.295Z,968.53
2022-08-09T00:30:16.315Z,968.49
2022-08-09T00:30:42.182Z,968.49
2022-08-09T00:31:58.233Z,968.47
2022-08-09T00:32:42.384Z,968.46
2022-08-09T00:33:51.245Z,968.45
2022-08-09T00:34:52.038Z,968.46
2022-08-09T00:35:43.309Z,968.46
2022-08-09T00:36:41.933Z,968.48
2022-08-09T00:37:41.889Z,968.44
2022-08-09T00:38:41.848Z,968.46
2022-08-09T00:40:09.115Z,968.43
2022-08-09T00:40:52.834Z,968.40
2022-08-09T00:44:10.158Z,968.42
2022-08-09T00:44:10.786Z,968.40
2022-08-09T00:44:20.130Z,968.39
2022-08-09T00:44:41.599Z,968.42
2022-08-09T00:45:50.510Z,968.37
2022-08-09T00:46:55.777Z,968.37
2022-08-09T00:47:41.487Z,968.40
2022-08-09T00:48:41.435Z,968.40
2022-08-09T00:49:41.392Z,968.40
2022-08-09T00:50:41.348Z,968.41
2022-08-09T00:51:54.182Z,968.41
2022-08-09T00:52:41.286Z,968.37
2022-08-09T00:53:41.230Z,968.40
2022-08-09T00:54:41.186Z,968.42
2022-08-09T00:56:04.926Z,968.40
2022-08-09T00:56:41.100Z,968.40
2022-08-09T00:57:41.058Z,968.42
2022-08-09T00:58:41.032Z,968.40
2022-08-09T00:59:46.747Z,968.40
2022-08-09T01:00:40.938Z,968.43
2022-08-09T01:01:44.657Z,968.43
2022-08-09T01:02:40.868Z,968.41
2022-08-09T01:03:46.312Z,968.45
2022-08-09T01:04:40.772Z,968.44
2022-08-09T01:05:54.349Z,968.44
2022-08-09T01:06:54.531Z,968.45
2022-08-09T01:07:59.693Z,968.51
2022-08-09T01:08:40.617Z,968.49
2022-08-09T01:09:40.565Z,968.51
2022-08-09T01:10:40.524Z,968.49
2022-08-09T01:11:40.483Z,968.51
2022-08-09T01:12:40.435Z,968.50
2022-08-09T01:13:41.764Z,968.48
2022-08-09T01:14:40.370Z,968.53
2022-08-09T01:15:43.423Z,968.50
2022-08-09T01:16:40.271Z,968.51
2022-08-09T01:17:40.227Z,968.52
2022-08-09T01:18:40.190Z,968.54
2022-08-09T01:19:51.896Z,968.49
2022-08-09T01:20:40.121Z,968.52
2022-08-09T01:21:44.718Z,968.52
2022-08-09T01:22:40.021Z,968.51
2022-08-09T01:24:02.294Z,968.53
2022-08-09T01:24:39.939Z,968.52
2022-08-09T01:25:41.950Z,968.55
2022-08-09T01:26:39.858Z,968.54
2022-08-09T01:27:39.923Z,968.53
2022-08-09T01:28:39.774Z,968.54
2022-08-09T01:29:41.283Z,968.55
2022-08-09T01:30:52.185Z,968.53
2022-08-09T01:32:30.334Z,968.55
2022-08-09T01:32:45.302Z,968.55
2022-08-09T01:33:39.582Z,968.55
2022-08-09T01:34:39.530Z,968.53
2022-08-09T01:35:39.482Z,968.57
2022-08-09T01:36:39.453Z,968.51
2022-08-09T01:38:05.727Z,968.51
2022-08-09T01:38:40.050Z,968.58
2022-08-09T01:39:39.406Z,968.54
2022-08-09T01:40:39.272Z,968.51
2022-08-09T01:41:39.233Z,968.57
2022-08-09T01:42:39.203Z,968.56
2022-08-09T01:43:50.657Z,968.60
2022-08-09T01:44:39.108Z,968.57
2022-08-09T01:45:46.392Z,968.58
2022-08-09T01:46:39.021Z,968.53
2022-08-09T01:47:44.941Z,968.53
2022-08-09T01:48:38.939Z,968.55
2022-08-09T01:49:39.889Z,968.55
2022-08-09T01:50:41.894Z,968.58
2022-08-09T01:51:38.814Z,968.57
2022-08-09T01:52:41.282Z,968.59
2022-08-09T01:53:41.178Z,968.56
2022-08-09T01:54:38.691Z,968.57
2022-08-09T01:55:38.887Z,968.58
2022-08-09T01:56:38.606Z,968.57
2022-08-09T01:57:40.158Z,968.56
2022-08-09T01:58:38.523Z,968.55
2022-08-09T01:59:51.066Z,968.56
2022-08-09T02:00:38.438Z,968.55
2022-08-09T02:01:57.968Z,968.59
2022-08-09T02:02:38.356Z,968.55
2022-08-09T02:03:38.318Z,968.60
2022-08-09T02:04:45.411Z,968.57
2022-08-09T02:06:04.061Z,968.62
2022-08-09T02:06:38.188Z,968.62
2022-08-09T02:08:39.840Z,968.62
2022-08-09T02:08:57.705Z,968.59
2022-08-09T02:09:42.092Z,968.62
2022-08-09T02:10:38.033Z,968.60
2022-08-09T02:11:42.649Z,968.61
2022-08-09T02:12:37.937Z,968.58
2022-08-09T02:13:40.693Z,968.59
2022-08-09T02:14:37.853Z,968.59
2022-08-09T02:15:49.046Z,968.57
2022-08-09T02:16:59.632Z,968.62
2022-08-09T02:18:01.255Z,968.62
2022-08-09T02:18:37.686Z,968.61
2022-08-09T02:19:39.091Z,968.63
2022-08-09T02:20:37.636Z,968.65
2022-08-09T02:21:38.342Z,968.57
2022-08-09T02:22:37.519Z,968.58
2022-08-09T02:23:39.834Z,968.61
2022-08-09T02:24:37.435Z,968.64
2022-08-09T02:25:41.863Z,968.62
2022-08-09T02:26:37.361Z,968.65
2022-08-09T02:27:58.210Z,968.68
2022-08-09T02:28:37.270Z,968.68
2022-08-09T02:29:37.232Z,968.67
2022-08-09T02:30:37.192Z,968.74
2022-08-09T02:31:37.152Z,968.72
2022-08-09T02:32:37.160Z,968.70
2022-08-09T02:33:58.130Z,968.70
2022-08-09T02:34:40.618Z,968.74
2022-08-09T02:36:01.251Z,968.71
2022-08-09T02:36:36.936Z,968.71
2022-08-09T02:37:36.918Z,968.70
2022-08-09T02:38:36.874Z,968.67
2022-08-09T02:39:41.971Z,968.73
2022-08-09T02:40:36.832Z,968.71
2022-08-09T02:41:36.727Z,968.71
2022-08-09T02:42:36.680Z,968.69
2022-08-09T02:43:53.504Z,968.72
2022-08-09T02:44:36.613Z,968.70
2022-08-09T02:45:36.556Z,968.72
2022-08-09T02:46:36.516Z,968.69
2022-08-09T02:47:57.181Z,968.68
2022-08-09T02:48:36.436Z,968.65
2022-08-09T02:49:38.980Z,968.70
2022-08-09T02:50:36.357Z,968.65
2022-08-09T02:51:39.961Z,968.69
2022-08-09T02:52:36.262Z,968.66
2022-08-09T02:53:36.225Z,968.65
2022-08-09T02:54:36.190Z,968.65
2022-08-09T02:55:46.441Z,968.64
2022-08-09T02:56:36.473Z,968.61
2022-08-09T02:57:40.447Z,968.61
2022-08-09T02:58:38.029Z,968.59
2022-08-09T02:59:36.692Z,968.60
2022-08-09T03:00:35.981Z,968.59
2022-08-09T03:01:42.598Z,968.64
2022-08-09T03:02:36.097Z,968.62
2022-08-09T03:04:12.388Z,968.61
2022-08-09T03:04:35.763Z,968.62
2022-08-09T03:05:35.722Z,968.57
2022-08-09T03:06:36.215Z,968.55
2022-08-09T03:07:35.633Z,968.53
2022-08-09T03:08:35.596Z,968.53
2022-08-09T03:09:35.554Z,968.54
2022-08-09T03:10:35.508Z,968.55
2022-08-09T03:12:09.619Z,968.55
2022-08-09T03:12:35.422Z,968.50
2022-08-09T03:13:43.971Z,968.46
2022-08-09T03:14:36.534Z,968.50
2022-08-09T03:15:40.453Z,968.48
2022-08-09T03:16:38.417Z,968.51
2022-08-09T03:17:35.231Z,968.51
2022-08-09T03:18:35.172Z,968.48
2022-08-09T03:19:57.775Z,968.51
2022-08-09T03:20:35.089Z,968.48
2022-08-09T03:21:39.446Z,968.50
2022-08-09T03:22:41.954Z,968.49
2022-08-09T03:23:34.963Z,968.51
2022-08-09T03:24:51.670Z,968.48
2022-08-09T03:25:59.260Z,968.46
2022-08-09T03:26:34.837Z,968.48
2022-08-09T03:27:44.780Z,968.48
2022-08-09T03:28:34.754Z,968.49
2022-08-09T03:29:35.773Z,968.51
2022-08-09T03:30:36.717Z,968.51
2022-08-09T03:31:34.633Z,968.52
2022-08-09T03:32:36.824Z,968.52
2022-08-09T03:33:54.138Z,968.50
2022-08-09T03:34:34.499Z,968.50
2022-08-09T03:36:11.160Z,968.52
2022-08-09T03:36:34.421Z,968.50
2022-08-09T03:37:56.082Z,968.52
2022-08-09T03:38:34.332Z,968.49
2022-08-09T03:39:38.117Z,968.52
2022-08-09T03:40:34.249Z,968.50
2022-08-09T03:41:45.874Z,968.49
2022-08-09T03:42:34.261Z,968.50
2022-08-09T03:43:34.121Z,968.55
2022-08-09T03:44:34.079Z,968.56
2022-08-09T03:46:04.164Z,968.55
2022-08-09T03:46:34.010Z,968.57
2022-08-09T03:47:36.703Z,968.58
2022-08-09T03:48:33.915Z,968.61
2022-08-09T03:49:35.841Z,968.61
2022-08-09T03:50:33.833Z,968.65
2022-08-09T03:51:57.588Z,968.67
2022-08-09T03:52:34.018Z,968.66
2022-08-09T03:53:37.041Z,968.67
2022-08-09T03:54:34.615Z,968.65
2022-08-09T03:55:36.213Z,968.71
2022-08-09T03:56:33.575Z,968.72
2022-08-09T03:57:33.554Z,968.72
2022-08-09T03:58:33.493Z,968.72
2022-08-09T03:59:53.195Z,968.76
2022-08-09T04:00:33.455Z,968.77
2022-08-09T04:01:33.365Z,968.71
2022-08-09T04:02:33.769Z,968.73
2022-08-09T04:03:45.982Z,968.73
2022-08-09T04:04:38.703Z,968.71
2022-08-09T04:05:33.192Z,968.72
2022-08-09T04:06:33.159Z,968.69
2022-08-09T04:07:47.726Z,968.71
2022-08-09T04:08:33.071Z,968.70
2022-08-09T04:09:48.313Z,968.69
2022-08-09T04:10:32.986Z,968.70
2022-08-09T04:11:32.945Z,968.72
2022-08-09T04:12:32.902Z,968.68
2022-08-09T04:14:37.524Z,968.69
2022-08-09T04:14:43.979Z,968.75
2022-08-09T04:16:17.314Z,968.71
2022-08-09T04:16:32.739Z,968.80
2022-08-09T04:17:32.691Z,968.77
2022-08-09T04:18:32.667Z,968.80
2022-08-09T04:19:51.166Z,968.82
2022-08-09T04:20:32.726Z,968.77
2022-08-09T04:21:38.534Z,968.83
2022-08-09T04:22:32.719Z,968.77
2022-08-09T04:23:32.439Z,968.77
2022-08-09T04:24:32.398Z,968.82
2022-08-09T04:25:32.359Z,968.78
2022-08-09T04:26:37.722Z,968.79
2022-08-09T04:27:32.802Z,968.77
2022-08-09T04:28:36.085Z,968.80
2022-08-09T04:29:32.185Z,968.78
2022-08-09T04:30:32.267Z,968.82
2022-08-09T04:31:37.643Z,968.83
2022-08-09T04:32:37.019Z,968.83
2022-08-09T04:33:32.015Z,968.83
2022-08-09T04:34:32.102Z,968.83
2022-08-09T04:35:32.873Z,968.85
2022-08-09T04:36:31.891Z,968.82
2022-08-09T04:37:45.392Z,968.82
2022-08-09T04:38:31.806Z,968.83
2022-08-09T04:39:31.824Z,968.83
2022-08-09T04:40:36.548Z,968.81
2022-08-09T04:41:33.220Z,968.87
2022-08-09T04:42:31.832Z,968.83
2022-08-09T04:43:35.129Z,968.86
2022-08-09T04:44:31.557Z,968.85
2022-08-09T04:45:36.073Z,968.86
2022-08-09T04:46:38.176Z,968.89
2022-08-09T04:47:45.201Z,968.90
2022-08-09T04:48:33.357Z,968.91
2022-08-09T04:49:52.979Z,968.88
2022-08-09T04:50:33.656Z,968.90
2022-08-09T04:51:31.269Z,968.92
2022-08-09T04:52:31.228Z,968.90
2022-08-09T04:53:31.505Z,968.88
2022-08-09T04:54:31.132Z,968.88
2022-08-09T04:55:38.215Z,968.88
2022-08-09T04:56:31.049Z,968.88
2022-08-09T04:57:59.431Z,968.90
2022-08-09T04:58:32.800Z,968.92
2022-08-09T04:59:30.920Z,968.90
2022-08-09T05:00:34.245Z,968.89
2022-08-09T05:01:30.836Z,968.89
2022-08-09T05:02:31.060Z,968.90
2022-08-09T05:03:43.027Z,968.90
2022-08-09T05:04:31.478Z,968.90
2022-08-09T05:05:32.319Z,968.94
2022-08-09T05:06:35.714Z,968.94
2022-08-09T05:07:32.018Z,968.94
2022-08-09T05:08:30.548Z,968.97
2022-08-09T05:09:41.913Z,968.98
2022-08-09T05:10:30.457Z,969.00
2022-08-09T05:11:35.580Z,968.99
2022-08-09T05:12:30.939Z,969.00
2022-08-09T05:13:33.161Z,969.00
2022-08-09T05:14:30.296Z,969.02
2022-08-09T05:15:43.013Z,969.05
2022-08-09T05:16:31.627Z,969.03
2022-08-09T05:18:38.838Z,969.00
2022-08-09T05:18:39.319Z,969.02
2022-08-09T05:19:31.913Z,969.00
2022-08-09T05:20:30.448Z,968.99
2022-08-09T05:21:36.538Z,969.03
2022-08-09T05:22:35.985Z,969.02
2022-08-09T05:23:59.861Z,969.00
2022-08-09T05:24:29.874Z,969.04
2022-08-09T05:25:32.449Z,969.06
2022-08-09T05:26:36.292Z,969.08
2022-08-09T05:27:30.260Z,969.07
2022-08-09T05:28:29.704Z,969.12
2022-08-09T05:29:31.228Z,969.14
2022-08-09T05:30:30.058Z,969.13
2022-08-09T05:31:44.997Z,969.21
2022-08-09T05:32:30.023Z,969.18
2022-08-09T05:33:33.080Z,969.19
2022-08-09T05:34:30.797Z,969.18
2022-08-09T05:35:29.411Z,969.20
2022-08-09T05:36:29.372Z,969.20
2022-08-09T05:37:29.329Z,969.21
2022-08-09T05:38:29.285Z,969.21
2022-08-09T05:39:36.164Z,969.21
2022-08-09T05:40:29.206Z,969.21
2022-08-09T05:41:29.163Z,969.24
2022-08-09T05:42:29.118Z,969.20
2022-08-09T05:43:31.848Z,969.23
2022-08-09T05:44:32.731Z,969.25
2022-08-09T05:45:52.799Z,969.24
2022-08-09T05:46:28.955Z,969.24
2022-08-09T05:47:30.437Z,969.27
2022-08-09T05:48:33.191Z,969.29
2022-08-09T05:49:33.975Z,969.28
2022-08-09T05:50:44.352Z,969.26
2022-08-09T05:51:43.029Z,969.25
2022-08-09T05:52:30.744Z,969.25
2022-08-09T05:53:33.203Z,969.27
2022-08-09T05:54:28.617Z,969.29
2022-08-09T05:55:28.576Z,969.30
2022-08-09T05:56:28.546Z,969.28
2022-08-09T05:57:57.085Z,969.31
2022-08-09T05:58:28.448Z,969.32
2022-08-09T05:59:28.422Z,969.33
2022-08-09T06:03:58.569Z,969.39
2022-08-09T06:04:46.776Z,969.41
2022-08-09T06:05:54.525Z,969.42
2022-08-09T06:06:49.693Z,969.43
2022-08-09T06:08:05.540Z,969.44
2022-08-09T06:08:52.690Z,969.43
2022-08-09T06:09:55.079Z,969.44
2022-08-09T06:10:46.855Z,969.45
2022-08-09T06:11:56.863Z,969.48
2022-08-09T06:12:46.440Z,969.50
2022-08-09T06:13:47.481Z,969.49
2022-08-09T06:14:46.627Z,969.49
2022-08-09T06:15:46.781Z,969.49
2022-08-09T06:16:52.426Z,969.48
2022-08-09T06:17:46.820Z,969.53
2022-08-09T06:18:46.457Z,969.52
2022-08-09T06:19:46.473Z,969.52
2022-08-09T06:20:49.901Z,969.51
2022-08-09T06:21:50.548Z,969.50
2022-08-09T06:22:46.028Z,969.51
2022-08-09T06:23:58.144Z,969.52
2022-08-09T06:24:46.138Z,969.54
2022-08-09T06:25:45.902Z,969.55
2022-08-09T06:26:46.106Z,969.49
2022-08-09T06:27:51.789Z,969.52
2022-08-09T06:28:45.907Z,969.51
2022-08-09T06:29:48.330Z,969.56
2022-08-09T06:30:45.723Z,969.56
2022-08-09T06:32:52.952Z,969.56
2022-08-09T06:32:59.898Z,969.55
2022-08-09T06:33:53.041Z,969.57
2022-08-09T06:34:47.228Z,969.54
2022-08-09T06:35:57.491Z,969.57
2022-08-09T06:36:45.514Z,969.54
2022-08-09T06:37:53.129Z,969.61
2022-08-09T06:38:47.241Z,969.58
2022-08-09T06:39:57.373Z,969.59
2022-08-09T06:40:45.314Z,969.56
2022-08-09T06:42:08.269Z,969.60
2022-08-09T06:42:46.789Z,969.60
2022-08-09T06:43:45.169Z,969.59
2022-08-09T06:44:45.307Z,969.61
2022-08-09T06:46:04.959Z,969.57
2022-08-09T06:46:45.047Z,969.55
2022-08-09T06:47:45.126Z,969.54
2022-08-09T06:48:45.184Z,969.54
2022-08-09T06:50:13.757Z,969.54
2022-08-09T06:50:44.948Z,969.58
2022-08-09T06:51:45.985Z,969.55
2022-08-09T06:52:44.962Z,969.57
2022-08-09T06:53:44.757Z,969.58
2022-08-09T06:54:44.768Z,969.57
2022-08-09T06:55:44.679Z,969.65
2022-08-09T06:56:45.596Z,969.62
2022-08-09T06:58:02.483Z,969.64
2022-08-09T07:00:49.218Z,969.64
2022-08-09T07:00:51.561Z,969.66
2022-08-09T07:00:55.799Z,969.64
2022-08-09T07:01:53.828Z,969.66
2022-08-09T07:02:44.436Z,969.68
2022-08-09T07:03:53.205Z,969.67
2022-08-09T07:04:44.320Z,969.70
2022-08-09T07:06:02.199Z,969.67
2022-08-09T07:06:44.459Z,969.67
2022-08-09T07:08:00.389Z,969.72
2022-08-09T07:08:44.150Z,969.72
2022-08-09T07:09:56.439Z,969.70
2022-08-09T07:10:44.318Z,969.71
2022-08-09T07:11:51.962Z,969.77
2022-08-09T07:12:44.127Z,969.68
2022-08-09T07:14:03.576Z,969.69
2022-08-09T07:14:43.922Z,969.73
2022-08-09T07:16:35.057Z,969.72
2022-08-09T07:16:49.763Z,969.73
2022-08-09T07:17:52.561Z,969.75
2022-08-09T07:18:43.968Z,969.76
2022-08-09T07:19:43.925Z,969.78
2022-08-09T07:20:44.550Z,969.75
2022-08-09T07:21:55.699Z,969.78
2022-08-09T07:22:49.560Z,969.77
2022-08-09T07:23:46.639Z,969.75
2022-08-09T07:24:44.558Z,969.70
2022-08-09T07:25:43.643Z,969.75
2022-08-09T07:26:43.481Z,969.76
2022-08-09T07:27:53.569Z,969.76
2022-08-09T07:29:08.558Z,969.78
2022-08-09T07:29:43.318Z,969.76
2022-08-09T07:30:43.390Z,969.81
2022-08-09T07:31:45.248Z,969.79
2022-08-09T07:32:43.612Z,969.84
2022-08-09T07:33:52.697Z,969.79
2022-08-09T07:34:43.125Z,969.82
2022-08-09T07:35:53.868Z,969.82
2022-08-09T07:36:43.046Z,969.81
2022-08-09T07:37:44.838Z,969.84
2022-08-09T07:38:46.557Z,969.83
2022-08-09T07:39:43.201Z,969.82
2022-08-09T07:41:00.872Z,969.82
2022-08-09T07:41:42.848Z,969.85
2022-08-09T07:42:42.862Z,969.85
2022-08-09T07:43:49.855Z,969.82
2022-08-09T07:44:51.769Z,969.84
2022-08-09T07:45:42.889Z,969.85
2022-08-09T07:46:43.061Z,969.82
2022-08-09T07:48:00.737Z,969.82
2022-08-09T07:50:14.455Z,969.84
2022-08-09T07:52:04.715Z,969.83
2022-08-09T07:52:18.039Z,969.84
2022-08-09T07:53:13.998Z,969.81
2022-08-09T07:54:14.073Z,969.82
2022-08-09T07:55:14.063Z,969.74
2022-08-09T07:56:26.883Z,969.80
2022-08-09T07:57:13.892Z,969.82
2022-08-09T07:58:14.139Z,969.83
2022-08-09T07:59:15.747Z,969.81
2022-08-09T08:00:13.724Z,969.80
2022-08-09T08:01:14.068Z,969.76
2022-08-09T08:02:19.826Z,969.79
2022-08-09T08:03:13.612Z,969.81
2022-08-09T08:04:13.569Z,969.81
2022-08-09T08:05:18.061Z,969.83
2022-08-09T08:06:14.241Z,969.82
2022-08-09T08:07:57.132Z,969.79
2022-08-09T08:08:59.970Z,969.80
2022-08-09T08:09:34.294Z,969.81
2022-08-09T08:10:13.348Z,969.82
2022-08-09T08:12:10.885Z,969.81
2022-08-09T08:12:28.008Z,969.79
2022-08-09T08:13:13.221Z,969.87
2022-08-09T08:14:13.297Z,969.89
2022-08-09T08:15:13.925Z,969.97
2022-08-09T08:16:31.445Z,969.96
2022-08-09T08:17:14.137Z,969.99
2022-08-09T08:18:14.430Z,970.03
2022-08-09T08:19:13.133Z,970.01
2022-08-09T08:20:13.624Z,970.03
2022-08-09T08:21:12.910Z,969.99
2022-08-09T08:22:12.945Z,970.04
2022-08-09T08:23:16.801Z,970.05
2022-08-09T08:24:16.524Z,970.03
2022-08-09T08:25:13.402Z,970.09
2022-08-09T08:26:13.145Z,970.06
2022-08-09T08:27:16.752Z,970.08
2022-08-09T08:28:14.373Z,970.07
2022-08-09T08:29:12.609Z,970.11
2022-08-09T08:30:12.699Z,970.09
2022-08-09T08:31:14.982Z,970.09
2022-08-09T08:32:12.641Z,970.02
2022-08-09T08:33:22.803Z,970.07
2022-08-09T08:34:12.427Z,970.06
2022-08-09T08:35:12.631Z,970.07
2022-08-09T08:36:12.481Z,970.09
2022-08-09T08:37:15.701Z,970.07
2022-08-09T08:38:12.447Z,970.04
2022-08-09T08:39:12.507Z,970.07
2022-08-09T08:40:12.204Z,970.15
2022-08-09T08:41:12.262Z,970.12
2022-08-09T08:42:12.150Z,970.13
2022-08-09T08:43:13.414Z,970.17
2022-08-09T08:44:13.716Z,970.18
2022-08-09T08:45:13.787Z,970.13
2022-08-09T08:46:33.022Z,970.25
2022-08-09T08:47:13.375Z,970.28
2022-08-09T08:48:11.950Z,970.25
2022-08-09T08:49:12.846Z,970.28
2022-08-09T08:50:11.850Z,970.29
2022-08-09T08:51:11.809Z,970.38
2022-08-09T08:52:20.320Z,970.37
2022-08-09T08:53:16.126Z,970.38
2022-08-09T08:54:11.708Z,970.39
2022-08-09T08:55:13.577Z,970.37
2022-08-09T08:56:16.819Z,970.36
2022-08-09T08:57:11.861Z,970.39
2022-08-09T08:58:11.567Z,970.44
2022-08-09T08:59:19.016Z,970.42
2022-08-09T09:00:17.088Z,970.41
2022-08-09T09:01:19.757Z,970.41
2022-08-09T09:02:11.463Z,970.47
2022-08-09T09:03:22.707Z,970.49
2022-08-09T09:04:11.356Z,970.51
2022-08-09T09:05:12.201Z,970.52
2022-08-09T09:06:11.288Z,970.54
2022-08-09T09:07:11.324Z,970.47
2022-08-09T09:08:31.124Z,970.49
2022-08-09T09:09:41.091Z,970.55
2022-08-09T09:10:11.150Z,970.47
2022-08-09T09:11:13.559Z,970.61
2022-08-09T09:12:16.744Z,970.50
2022-08-09T09:13:11.610Z,970.54
2022-08-09T09:14:11.018Z,970.58
2022-08-09T09:15:12.137Z,970.56
2022-08-09T09:16:11.187Z,970.59
2022-08-09T09:17:10.918Z,970.53
2022-08-09T09:18:10.995Z,970.55
2022-08-09T09:19:41.246Z,970.58
2022-08-09T09:20:18.812Z,970.64
2022-08-09T09:21:10.786Z,970.68
2022-08-09T09:22:11.598Z,970.59
2022-08-09T09:23:14.195Z,970.59
2022-08-09T09:24:19.734Z,970.59
2022-08-09T09:26:01.831Z,970.60
2022-08-09T09:26:12.286Z,970.66
2022-08-09T09:28:02.859Z,970.71
2022-08-09T09:28:11.155Z,970.62
2022-08-09T09:29:16.785Z,970.67
2022-08-09T09:30:21.759Z,970.64
2022-08-09T09:31:17.616Z,970.60
2022-08-09T09:32:15.386Z,970.59
2022-08-09T09:33:16.554Z,970.55
2022-08-09T09:34:10.405Z,970.57
2022-08-09T09:35:10.507Z,970.56
2022-08-09T09:36:19.990Z,970.54
2022-08-09T09:37:13.024Z,970.52
2022-08-09T09:38:10.327Z,970.55
2022-08-09T09:39:10.418Z,970.54
2022-08-09T09:40:11.613Z,970.54
2022-08-09T09:41:10.699Z,970.52
2022-08-09T09:42:12.032Z,970.54
2022-08-09T09:43:10.127Z,970.52
2022-08-09T09:44:12.706Z,970.55
2022-08-09T09:45:10.473Z,970.60
2022-08-09T09:46:41.960Z,970.49
2022-08-09T09:47:10.047Z,970.59
2022-08-09T09:48:10.093Z,970.56
2022-08-09T09:49:09.959Z,970.55
2022-08-09T09:50:15.734Z,970.58
2022-08-09T09:51:11.725Z,970.55
2022-08-09T09:52:35.730Z,970.58
2022-08-09T09:53:10.708Z,970.52
2022-08-09T09:54:21.039Z,970.55
2022-08-09T09:55:24.286Z,970.59
2022-08-09T09:56:19.830Z,970.55
2022-08-09T09:58:01.681Z,970.59
2022-08-09T09:58:15.634Z,970.62
2022-08-09T09:59:09.684Z,970.65
2022-08-09T10:00:09.764Z,970.63
2022-08-09T10:01:35.888Z,970.58
2022-08-09T10:02:09.620Z,970.59
2022-08-09T10:03:13.861Z,970.67
2022-08-09T10:04:10.016Z,970.60
2022-08-09T10:05:09.526Z,970.68
2022-08-09T10:06:09.610Z,970.59
2022-08-09T10:07:10.129Z,970.60
2022-08-09T10:08:28.030Z,970.64
2022-08-09T10:09:11.978Z,970.69
2022-08-09T10:10:09.396Z,970.66
2022-08-09T10:11:53.750Z,970.74
2022-08-09T10:12:14.509Z,970.64
2022-08-09T10:13:10.196Z,970.62
2022-08-09T10:14:09.458Z,970.68
2022-08-09T10:15:10.678Z,970.69
2022-08-09T10:16:58.173Z,970.67
2022-08-09T10:17:38.708Z,970.64
2022-08-09T10:18:10.309Z,970.70
2022-08-09T10:19:10.205Z,970.72
2022-08-09T10:20:15.032Z,970.72
2022-08-09T10:21:09.303Z,970.74
2022-08-09T10:22:09.082Z,970.76
2022-08-09T10:23:09.134Z,970.79
2022-08-09T10:24:09.035Z,970.73
2022-08-09T10:25:12.060Z,970.71
2022-08-09T10:26:11.123Z,970.74
2022-08-09T10:27:10.228Z,970.67
2022-08-09T10:28:09.149Z,970.68
2022-08-09T10:29:21.256Z,970.65
2022-08-09T10:32:03.771Z,970.63
2022-08-09T10:32:27.602Z,970.68
2022-08-09T10:33:08.793Z,970.57
2022-08-09T10:34:32.809Z,970.67
2022-08-09T10:35:09.799Z,970.59
2022-08-09T10:36:09.439Z,970.62
2022-08-09T10:37:09.850Z,970.61
2022-08-09T10:38:33.630Z,970.66
2022-08-09T10:39:15.499Z,970.65
2022-08-09T10:40:08.724Z,970.62
2022-08-09T10:41:08.816Z,970.61
2022-08-09T10:42:08.583Z,970.58
2022-08-09T10:43:08.994Z,970.58
2022-08-09T10:44:08.517Z,970.58
2022-08-09T10:45:12.053Z,970.57
2022-08-09T10:46:08.468Z,970.57
2022-08-09T10:48:14.273Z,970.58
2022-08-09T10:48:16.214Z,970.55
2022-08-09T10:49:10.396Z,970.50
2022-08-09T10:50:09.972Z,970.52
2022-08-09T10:51:08.346Z,970.52
2022-08-09T10:52:08.320Z,970.58
2022-08-09T10:53:10.340Z,970.55
2022-08-09T10:54:12.128Z,970.54
2022-08-09T10:55:08.242Z,970.56
2022-08-09T10:56:08.244Z,970.54
2022-08-09T10:57:08.200Z,970.53
2022-08-09T10:58:08.199Z,970.58
2022-08-09T10:59:08.148Z,970.62
2022-08-09T11:00:08.188Z,970.58
2022-08-09T11:03:06.430Z,970.57
2022-08-09T11:03:13.091Z,970.50
2022-08-09T11:03:27.276Z,970.53
2022-08-09T11:04:19.998Z,970.57
2022-08-09T11:05:08.061Z,970.59
2022-08-09T11:06:08.002Z,970.54
2022-08-09T11:07:07.954Z,970.62
2022-08-09T11:08:07.927Z,970.59
2022-08-09T11:09:16.222Z,970.53
2022-08-09T11:10:07.920Z,970.54
2022-08-09T11:11:09.102Z,970.55
2022-08-09T11:12:07.865Z,970.60
2022-08-09T11:13:07.808Z,970.47
2022-08-09T11:14:07.780Z,970.54
2022-08-09T11:15:07.758Z,970.55
2022-08-09T11:16:07.815Z,970.56
2022-08-09T11:17:07.710Z,970.54
2022-08-09T11:18:07.725Z,970.52
2022-08-09T11:19:09.706Z,970.50
2022-08-09T11:20:20.030Z,970.47
2022-08-09T11:21:07.616Z,970.46
2022-08-09T11:22:18.923Z,970.45
2022-08-09T11:23:10.420Z,970.41
2022-08-09T11:24:07.543Z,970.42
2022-08-09T11:25:08.204Z,970.40
2022-08-09T11:26:07.497Z,970.42
2022-08-09T11:27:07.473Z,970.40
2022-08-09T11:28:27.853Z,970.37
2022-08-09T11:29:07.424Z,970.44
2022-08-09T11:30:32.766Z,970.42
2022-08-09T11:31:07.379Z,970.41
2022-08-09T11:32:07.380Z,970.40
2022-08-09T11:33:07.327Z,970.34
2022-08-09T11:34:07.322Z,970.39
2022-08-09T11:35:07.292Z,970.31
2022-08-09T11:36:07.257Z,970.33
2022-08-09T11:37:07.781Z,970.31
2022-08-09T11:38:07.211Z,970.26
2022-08-09T11:39:07.243Z,970.24
2022-08-09T11:40:07.243Z,970.29
2022-08-09T11:41:07.141Z,970.26
2022-08-09T11:42:07.114Z,970.27
2022-08-09T11:43:07.092Z,970.24
2022-08-09T11:44:07.068Z,970.26
2022-08-09T11:45:07.047Z,970.24
2022-08-09T11:46:07.041Z,970.20
2022-08-09T11:47:07.001Z,970.16
2022-08-09T11:48:19.275Z,970.02
2022-08-09T11:49:06.951Z,970.27
2022-08-09T11:50:55.855Z,970.24
2022-08-09T11:52:59.233Z,970.26
2022-08-09T11:53:02.657Z,970.24
2022-08-09T11:53:16.307Z,970.28
2022-08-09T11:54:13.488Z,970.29
2022-08-09T11:55:06.804Z,970.23
2022-08-09T11:56:06.783Z,970.20
2022-08-09T11:57:06.761Z,970.15
2022-08-09T11:58:06.754Z,970.23
2022-08-09T11:59:06.756Z,970.23
2022-08-09T12:00:10.499Z,970.22
2022-08-09T12:01:08.938Z,970.25
2022-08-09T12:02:17.326Z,970.25
2022-08-09T12:03:31.972Z,970.23
2022-08-09T12:04:06.646Z,970.19
2022-08-09T12:05:06.684Z,970.27
2022-08-09T12:06:06.543Z,970.27
2022-08-09T12:07:08.159Z,970.21
2022-08-09T12:08:06.497Z,970.18
2022-08-09T12:09:06.472Z,970.24
2022-08-09T12:10:06.467Z,970.22
2022-08-09T12:11:12.798Z,970.24
2022-08-09T12:12:12.147Z,970.14
2022-08-09T12:14:06.950Z,970.24
2022-08-09T12:14:08.060Z,970.16
2022-08-09T12:15:09.007Z,970.17
2022-08-09T12:16:06.337Z,970.21
2022-08-09T12:17:28.340Z,970.22
2022-08-09T12:18:06.255Z,970.22
2022-08-09T12:19:06.233Z,970.18
2022-08-09T12:20:06.209Z,970.18
2022-08-09T12:21:26.338Z,970.20
2022-08-09T12:22:06.206Z,970.22
2022-08-09T12:23:06.136Z,970.21
2022-08-09T12:24:08.801Z,970.17
2022-08-09T12:25:06.093Z,970.11
2022-08-09T12:26:06.066Z,970.15
2022-08-09T12:29:11.081Z,970.12
2022-08-09T12:29:15.033Z,970.08
2022-08-09T12:29:29.754Z,970.17
2022-08-09T12:30:36.301Z,970.10
2022-08-09T12:31:11.130Z,970.15
2022-08-09T12:32:05.949Z,970.13
2022-08-09T12:33:05.913Z,970.06
2022-08-09T12:34:05.879Z,970.08